Esquina — 2DOU6 — position and weather

sailwx.info

Track history (hours):
 
Tides and Currents Weather Stations Pressure Air Temp Water Temp Dewpoint Dewpoint Depression Visibility Wind Speed Wind Dir Waves Ship Positions

Esquina

Last reported at 2015-Jul-06 18:33 UTC. Time now 2015-Jul-07 11:09 UTC.
Position N 49°30' E 000°02'.

Type: Other ship. MMSI: 235080801.

Date/timePositionNaut miles runAvg speedWind from/ knotsBaromVisibWave heightAir tempDewpointWater temp
2015-Jul-06 18:33N 49°30' E 000°02'15 3.7
2015-Jul-06 14:32N 49°38' W 000°17'1515.2
2015-Jul-06 13:33N 49°30' E 000°02'3 2.7
2015-Jul-06 12:33N 49°29' E 000°06'5 2.3
2015-Jul-06 10:33N 49°31' W 000°00'14 4.6
2015-Jul-06 07:28N 49°39' W 000°19'1820.1
2015-Jul-06 06:33N 49°29' E 000°05'  
2015-Jul-03 16:09N 49°29' E 000°06'712.0
2015-Jul-03 15:33N 49°31' W 000°05'9 2.1
2015-Jul-03 11:19N 49°37' W 000°15'1418.5
2015-Jul-03 10:33N 49°30' E 000°04'1 1.3
2015-Jul-03 09:33N 49°29' E 000°06'0 0.0
2015-Jul-03 08:33N 49°29' E 000°06'1 0.8
2015-Jul-03 07:33N 49°29' E 000°07'1 0.0
2015-Jul-01 18:13N 49°29' E 000°06'811.8
2015-Jul-01 17:33N 49°33' W 000°05'  
Track history (hours):
 
Tides and Currents Weather Stations Pressure Air Temp Water Temp Dewpoint Dewpoint Depression Visibility Wind Speed Wind Dir Waves Ship Positions

Esquina

Last reported at 2015-Jul-06 18:33 UTC. Time now 2015-Jul-07 11:09 UTC.
Position N 49°30' E 000°02'.

Type: Other ship. MMSI: 235080801.

Date/timePositionNaut miles runAvg speedWind from/ knotsBaromVisibWave heightAir tempDewpointWater temp
2015-Jul-06 18:33N 49°30' E 000°02'15 3.7
2015-Jul-06 14:32N 49°38' W 000°17'1515.2
2015-Jul-06 13:33N 49°30' E 000°02'3 2.7
2015-Jul-06 12:33N 49°29' E 000°06'5 2.3
2015-Jul-06 10:33N 49°31' W 000°00'14 4.6
2015-Jul-06 07:28N 49°39' W 000°19'1820.1
2015-Jul-06 06:33N 49°29' E 000°05'  
2015-Jul-03 16:09N 49°29' E 000°06'712.0
2015-Jul-03 15:33N 49°31' W 000°05'9 2.1
2015-Jul-03 11:19N 49°37' W 000°15'1418.5
2015-Jul-03 10:33N 49°30' E 000°04'1 1.3
2015-Jul-03 09:33N 49°29' E 000°06'0 0.0
2015-Jul-03 08:33N 49°29' E 000°06'1 0.8
2015-Jul-03 07:33N 49°29' E 000°07'1 0.0
2015-Jul-01 18:13N 49°29' E 000°06'811.8
2015-Jul-01 17:33N 49°33' W 000°05'  

Dump ship's entire track history